Time;durP1;ratioP1;P1;durP2;ratioP2;P2;SDS_P1;SDS_P2;PMS_P1;PMS_P2;Temp;Humidity;BMP_temperature;BMP_pressure;BME280_temperature;BME280_humidity;BME280_pressure;Samples;Min_cycle;Max_cycle;Signal;HPM_P1;HPM_P2
2021/05/08 00:01:14;;;;;;;4.05;2.45;;;;;;;;;;5093118;28;20035;-46
2021/05/08 00:03:40;;;;;;;3.88;2.25;;;;;;;;;;5093107;28;20107;-46
2021/05/08 00:06:08;;;;;;;5.57;1.95;;;;;;;;;;5093105;28;20098;-46
2021/05/08 00:08:34;;;;;;;6.00;2.17;;;;;;;;;;5084438;28;20369;-46
2021/05/08 00:11:00;;;;;;;4.53;2.20;;;;;;;;;;5092925;28;20031;-47
2021/05/08 00:13:26;;;;;;;2.85;2.17;;;;;;;;;;5092896;28;20319;-46
2021/05/08 00:15:52;;;;;;;5.75;2.42;;;;;;;;;;5093169;28;20028;-47
2021/05/08 00:18:18;;;;;;;5.32;2.50;;;;;;;;;;5092629;28;20032;-47
2021/05/08 00:20:44;;;;;;;4.47;2.78;;;;;;;;;;5092572;28;20032;-47
2021/05/08 00:23:10;;;;;;;8.82;3.42;;;;;;;;;;5092770;28;20028;-46
2021/05/08 00:25:36;;;;;;;10.25;3.60;;;;;;;;;;5092598;28;20459;-46
2021/05/08 00:28:02;;;;;;;5.80;2.83;;;;;;;;;;5092272;28;20452;-46
2021/05/08 00:30:28;;;;;;;6.45;3.20;;;;;;;;;;5092433;28;20084;-46
2021/05/08 00:32:54;;;;;;;9.00;3.55;;;;;;;;;;5092570;28;20161;-46
2021/05/08 00:35:20;;;;;;;6.70;3.13;;;;;;;;;;5092674;28;20032;-46
2021/05/08 00:37:47;;;;;;;11.95;3.88;;;;;;;;;;5077282;28;20020;-46
2021/05/08 00:40:13;;;;;;;8.32;3.22;;;;;;;;;;5092357;28;20024;-47
2021/05/08 00:42:39;;;;;;;6.97;2.78;;;;;;;;;;5092570;28;20345;-47
2021/05/08 00:45:06;;;;;;;8.13;3.40;;;;;;;;;;5092549;28;20112;-46
2021/05/08 00:47:33;;;;;;;4.65;3.15;;;;;;;;;;5092713;28;20035;-46
2021/05/08 00:49:59;;;;;;;6.18;3.15;;;;;;;;;;5091958;28;20556;-47
2021/05/08 00:52:25;;;;;;;4.60;2.70;;;;;;;;;;5093109;28;20030;-47
2021/05/08 00:54:51;;;;;;;6.75;3.05;;;;;;;;;;5096171;28;20115;-46
2021/05/08 00:57:17;;;;;;;3.15;2.22;;;;;;;;;;5096098;28;20108;-47
2021/05/08 00:59:43;;;;;;;6.60;3.33;;;;;;;;;;5095775;28;20097;-45
2021/05/08 01:02:09;;;;;;;5.53;2.90;;;;;;;;;;5095821;28;20111;-46
2021/05/08 01:04:35;;;;;;;6.00;2.30;;;;;;;;;;5096027;28;20410;-45
2021/05/08 01:07:01;;;;;;;9.65;3.42;;;;;;;;;;5095641;28;20437;-47
2021/05/08 01:09:28;;;;;;;6.82;3.30;;;;;;;;;;5094796;28;20028;-46
2021/05/08 01:11:55;;;;;;;4.82;2.88;;;;;;;;;;5095761;28;20027;-47
2021/05/08 01:14:21;;;;;;;4.80;3.17;;;;;;;;;;5096068;28;20020;-45
2021/05/08 01:16:47;;;;;;;9.18;3.38;;;;;;;;;;5095723;28;20039;-47
2021/05/08 01:19:15;;;;;;;7.60;3.15;;;;;;;;;;5095072;28;20077;-46
2021/05/08 01:21:41;;;;;;;8.85;2.60;;;;;;;;;;5095744;28;20077;-47
2021/05/08 01:24:08;;;;;;;7.65;3.03;;;;;;;;;;5095486;28;20032;-47
2021/05/08 01:26:34;;;;;;;7.60;2.88;;;;;;;;;;5095914;28;20027;-46
2021/05/08 01:29:00;;;;;;;3.75;2.30;;;;;;;;;;5094404;28;20032;-46
2021/05/08 01:31:26;;;;;;;4.70;2.65;;;;;;;;;;5095565;28;20115;-46
2021/05/08 01:33:52;;;;;;;4.95;2.80;;;;;;;;;;5095332;28;20055;-46
2021/05/08 01:36:18;;;;;;;3.33;2.28;;;;;;;;;;5094826;28;20425;-46
2021/05/08 01:38:44;;;;;;;5.13;2.90;;;;;;;;;;5095162;28;20077;-47
2021/05/08 01:41:11;;;;;;;5.47;2.65;;;;;;;;;;5095214;28;20408;-46
2021/05/08 01:43:37;;;;;;;4.30;2.20;;;;;;;;;;5094783;28;20428;-47
2021/05/08 01:46:04;;;;;;;4.55;2.40;;;;;;;;;;5095203;28;20357;-47
2021/05/08 01:48:30;;;;;;;9.45;2.42;;;;;;;;;;5094252;28;20043;-46
2021/05/08 01:50:56;;;;;;;8.57;2.40;;;;;;;;;;5095063;28;20031;-46
2021/05/08 01:53:22;;;;;;;3.85;2.53;;;;;;;;;;5094646;28;20438;-47
2021/05/08 01:55:49;;;;;;;6.72;2.92;;;;;;;;;;5094958;28;20467;-47
2021/05/08 01:58:15;;;;;;;5.25;2.80;;;;;;;;;;5094376;28;20522;-47
2021/05/08 02:00:43;;;;;;;6.03;2.13;;;;;;;;;;5095085;28;20050;-46
2021/05/08 02:03:09;;;;;;;5.97;2.30;;;;;;;;;;5093950;28;20099;-47
2021/05/08 02:05:36;;;;;;;5.57;2.70;;;;;;;;;;5094315;28;20146;-45
2021/05/08 02:08:04;;;;;;;5.22;2.65;;;;;;;;;;5082809;28;20092;-47
2021/05/08 02:10:30;;;;;;;3.45;2.45;;;;;;;;;;5074159;28;20044;-46
2021/05/08 02:12:57;;;;;;;2.53;2.03;;;;;;;;;;5074579;28;20105;-47
2021/05/08 02:15:23;;;;;;;3.53;2.00;;;;;;;;;;5074666;28;20078;-46
2021/05/08 02:17:49;;;;;;;2.92;2.20;;;;;;;;;;5087891;28;20531;-47
2021/05/08 02:20:26;;;;;;;4.78;2.55;;;;;;;;;;5093885;28;20020;-46
2021/05/08 02:22:53;;;;;;;4.45;2.70;;;;;;;;;;5094757;28;20031;-47
2021/05/08 02:25:19;;;;;;;4.70;2.28;;;;;;;;;;5083449;28;20029;-46
2021/05/08 02:27:45;;;;;;;4.82;2.38;;;;;;;;;;5080303;28;20035;-46
2021/05/08 02:30:12;;;;;;;5.07;2.45;;;;;;;;;;5093833;28;20036;-47
2021/05/08 02:32:39;;;;;;;6.50;2.30;;;;;;;;;;5094803;28;20099;-46
2021/05/08 02:35:06;;;;;;;3.22;2.30;;;;;;;;;;5094319;28;20070;-46
2021/05/08 02:37:32;;;;;;;4.32;2.38;;;;;;;;;;5093693;28;20538;-46
2021/05/08 02:39:58;;;;;;;7.38;2.13;;;;;;;;;;5093747;28;20030;-47
2021/05/08 02:42:24;;;;;;;4.30;2.42;;;;;;;;;;5093881;28;20028;-47
2021/05/08 02:44:50;;;;;;;4.65;2.55;;;;;;;;;;5094230;28;20052;-47
2021/05/08 02:47:17;;;;;;;3.63;2.58;;;;;;;;;;5093858;28;20036;-46
2021/05/08 02:49:44;;;;;;;3.35;2.13;;;;;;;;;;5092798;28;20429;-47
2021/05/08 02:52:10;;;;;;;3.53;2.53;;;;;;;;;;5093845;28;20027;-46
2021/05/08 02:54:36;;;;;;;4.18;2.35;;;;;;;;;;5094109;28;20024;-46
2021/05/08 02:57:02;;;;;;;4.05;2.67;;;;;;;;;;5093297;28;20493;-46
2021/05/08 02:59:28;;;;;;;4.10;1.92;;;;;;;;;;5093007;28;20103;-45
2021/05/08 03:01:54;;;;;;;9.05;2.47;;;;;;;;;;5093646;28;20113;-47
2021/05/08 03:04:20;;;;;;;6.90;2.63;;;;;;;;;;5093403;28;20148;-47
2021/05/08 03:06:46;;;;;;;3.53;2.03;;;;;;;;;;5093351;28;20032;-47
2021/05/08 03:09:12;;;;;;;3.10;2.10;;;;;;;;;;5093459;28;20028;-47
2021/05/08 03:11:38;;;;;;;6.00;2.40;;;;;;;;;;5093491;28;20024;-46
2021/05/08 03:14:05;;;;;;;3.25;1.95;;;;;;;;;;5093366;28;20357;-47
2021/05/08 03:16:31;;;;;;;2.10;1.90;;;;;;;;;;5093256;28;20020;-46
2021/05/08 03:18:57;;;;;;;4.90;2.38;;;;;;;;;;5093320;28;20020;-47
2021/05/08 03:21:23;;;;;;;5.78;2.35;;;;;;;;;;5092875;28;20432;-46
2021/05/08 03:23:49;;;;;;;4.75;2.60;;;;;;;;;;5092791;28;20426;-47
2021/05/08 03:26:15;;;;;;;4.18;2.53;;;;;;;;;;5092735;28;20107;-46
2021/05/08 03:28:41;;;;;;;3.35;1.85;;;;;;;;;;5092560;28;20030;-46
2021/05/08 03:31:07;;;;;;;3.33;2.00;;;;;;;;;;5092559;28;20684;-46
2021/05/08 03:33:33;;;;;;;5.85;2.47;;;;;;;;;;5092709;28;20019;-45
2021/05/08 03:35:58;;;;;;;3.95;2.17;;;;;;;;;;5091558;28;20461;-47
2021/05/08 03:38:24;;;;;;;5.20;2.55;;;;;;;;;;5092874;28;20193;-46
2021/05/08 03:40:50;;;;;;;4.32;1.98;;;;;;;;;;5092797;28;20031;-46
2021/05/08 03:43:16;;;;;;;3.38;2.50;;;;;;;;;;5092510;28;20506;-46
2021/05/08 03:45:42;;;;;;;5.35;2.60;;;;;;;;;;5092983;28;20068;-46
2021/05/08 03:48:09;;;;;;;3.08;2.22;;;;;;;;;;5092988;28;20098;-47
2021/05/08 03:50:35;;;;;;;5.40;2.67;;;;;;;;;;5092398;28;20489;-46
2021/05/08 03:53:01;;;;;;;6.32;2.90;;;;;;;;;;5092437;28;20025;-45
2021/05/08 03:55:27;;;;;;;3.10;2.28;;;;;;;;;;5093555;28;20028;-47
2021/05/08 03:57:53;;;;;;;4.57;2.20;;;;;;;;;;5092673;28;20441;-47
2021/05/08 04:00:19;;;;;;;9.40;2.75;;;;;;;;;;5093110;28;20020;-47
2021/05/08 04:02:45;;;;;;;4.97;2.38;;;;;;;;;;5092681;28;20031;-47
2021/05/08 04:05:11;;;;;;;5.07;2.63;;;;;;;;;;5092904;28;20020;-47
2021/05/08 04:07:37;;;;;;;4.32;2.35;;;;;;;;;;5084456;28;20048;-46
2021/05/08 04:10:03;;;;;;;4.38;2.55;;;;;;;;;;5089459;28;20454;-46
2021/05/08 04:12:29;;;;;;;5.72;2.70;;;;;;;;;;5092922;28;20024;-46
2021/05/08 04:14:55;;;;;;;5.00;2.22;;;;;;;;;;5092880;28;20077;-46
2021/05/08 04:17:21;;;;;;;4.28;2.70;;;;;;;;;;5092344;28;20035;-47
2021/05/08 04:19:47;;;;;;;6.20;2.83;;;;;;;;;;5092672;28;20032;-46
2021/05/08 04:22:13;;;;;;;3.95;2.25;;;;;;;;;;5092407;28;20040;-45
2021/05/08 04:24:40;;;;;;;4.60;2.47;;;;;;;;;;5093044;28;20323;-46
2021/05/08 04:27:06;;;;;;;8.35;3.03;;;;;;;;;;5093221;28;20052;-46
2021/05/08 04:29:32;;;;;;;4.13;2.70;;;;;;;;;;5096185;28;20028;-47
2021/05/08 04:31:58;;;;;;;4.25;2.45;;;;;;;;;;5095978;28;20330;-46
2021/05/08 04:34:24;;;;;;;7.70;2.78;;;;;;;;;;5096823;28;20028;-47
2021/05/08 04:36:50;;;;;;;5.45;2.70;;;;;;;;;;5096343;28;20027;-46
2021/05/08 04:39:16;;;;;;;5.32;2.50;;;;;;;;;;5095049;28;20024;-46
2021/05/08 04:41:42;;;;;;;4.57;2.80;;;;;;;;;;5096208;28;20016;-46
2021/05/08 04:44:08;;;;;;;4.80;2.33;;;;;;;;;;5095734;28;20111;-46
2021/05/08 04:46:34;;;;;;;3.83;2.38;;;;;;;;;;5095302;28;20016;-47
2021/05/08 04:49:00;;;;;;;7.88;2.67;;;;;;;;;;5095796;28;20032;-46
2021/05/08 04:51:27;;;;;;;7.18;2.78;;;;;;;;;;5095961;28;20028;-46
2021/05/08 04:53:53;;;;;;;5.85;2.47;;;;;;;;;;5095302;28;21116;-46
2021/05/08 04:56:19;;;;;;;3.83;2.40;;;;;;;;;;5093417;28;20046;-46
2021/05/08 04:58:45;;;;;;;5.43;2.50;;;;;;;;;;5095295;28;20056;-47
2021/05/08 05:01:11;;;;;;;4.57;2.30;;;;;;;;;;5095264;28;20036;-46
2021/05/08 05:03:38;;;;;;;5.72;2.65;;;;;;;;;;5095388;28;20048;-46
2021/05/08 05:06:04;;;;;;;6.47;2.58;;;;;;;;;;5095380;28;20034;-47
2021/05/08 05:08:30;;;;;;;3.10;2.30;;;;;;;;;;5093133;28;20050;-46
2021/05/08 05:10:56;;;;;;;2.92;2.10;;;;;;;;;;5094749;28;20036;-47
2021/05/08 05:13:23;;;;;;;3.70;1.90;;;;;;;;;;5095420;28;20020;-47
2021/05/08 05:15:50;;;;;;;3.50;2.00;;;;;;;;;;5095303;28;20016;-46
2021/05/08 05:18:16;;;;;;;6.05;2.40;;;;;;;;;;5094739;28;20016;-47
2021/05/08 05:20:42;;;;;;;3.47;2.55;;;;;;;;;;5095169;28;20047;-47
2021/05/08 05:23:08;;;;;;;3.25;2.25;;;;;;;;;;5094832;28;20342;-46
2021/05/08 05:25:34;;;;;;;6.22;2.25;;;;;;;;;;5095238;28;20430;-46
2021/05/08 05:28:00;;;;;;;5.35;2.65;;;;;;;;;;5095046;28;20032;-47
2021/05/08 05:30:27;;;;;;;7.97;2.70;;;;;;;;;;5094417;28;20036;-47
2021/05/08 05:32:53;;;;;;;4.25;2.28;;;;;;;;;;5095163;28;20024;-47
2021/05/08 05:35:19;;;;;;;2.67;2.35;;;;;;;;;;5086917;28;20119;-46
2021/05/08 05:37:45;;;;;;;6.97;3.35;;;;;;;;;;5094602;28;20069;-47
2021/05/08 05:40:11;;;;;;;4.85;3.00;;;;;;;;;;5093817;28;20031;-51
2021/05/08 05:42:38;;;;;;;11.60;3.33;;;;;;;;;;5095275;28;20032;-46
2021/05/08 05:45:05;;;;;;;5.90;2.72;;;;;;;;;;5094610;28;20462;-46
2021/05/08 05:47:32;;;;;;;5.10;3.13;;;;;;;;;;5093202;28;20128;-46
2021/05/08 05:49:58;;;;;;;6.35;3.45;;;;;;;;;;5092119;28;20361;-46
2021/05/08 05:52:24;;;;;;;8.82;3.00;;;;;;;;;;5094526;28;20020;-46
2021/05/08 05:54:51;;;;;;;9.25;2.70;;;;;;;;;;5093872;28;20028;-46
2021/05/08 05:57:17;;;;;;;6.45;3.63;;;;;;;;;;5093769;28;20378;-46
2021/05/08 05:59:43;;;;;;;6.85;3.88;;;;;;;;;;5094190;28;20024;-45
2021/05/08 06:02:10;;;;;;;4.70;2.83;;;;;;;;;;5094828;28;20100;-45
2021/05/08 06:04:36;;;;;;;4.50;3.17;;;;;;;;;;5093867;28;20027;-46
2021/05/08 06:07:02;;;;;;;9.25;2.83;;;;;;;;;;5091395;28;20028;-47
2021/05/08 06:09:29;;;;;;;9.38;2.92;;;;;;;;;;5074464;28;20036;-46
2021/05/08 06:11:55;;;;;;;5.65;3.47;;;;;;;;;;5091271;28;20024;-46
2021/05/08 06:14:22;;;;;;;7.75;3.50;;;;;;;;;;5094413;28;20035;-47
2021/05/08 06:16:48;;;;;;;8.07;3.90;;;;;;;;;;5094185;28;20024;-47
2021/05/08 06:19:14;;;;;;;6.40;3.85;;;;;;;;;;5094064;28;20559;-46
2021/05/08 06:21:40;;;;;;;7.93;4.40;;;;;;;;;;5094411;28;20445;-46
2021/05/08 06:24:07;;;;;;;6.70;4.00;;;;;;;;;;5092836;28;20099;-47
2021/05/08 06:26:34;;;;;;;12.63;4.15;;;;;;;;;;5093268;28;20036;-47
2021/05/08 06:29:00;;;;;;;6.45;4.00;;;;;;;;;;5093502;28;20028;-46
2021/05/08 06:31:26;;;;;;;6.63;4.57;;;;;;;;;;5094260;28;20032;-47
2021/05/08 06:33:52;;;;;;;8.15;4.38;;;;;;;;;;5094054;28;20480;-47
2021/05/08 06:36:18;;;;;;;7.82;4.10;;;;;;;;;;5093776;28;20473;-46
2021/05/08 06:38:44;;;;;;;12.25;4.78;;;;;;;;;;5078025;28;20017;-46
2021/05/08 06:41:10;;;;;;;9.18;3.80;;;;;;;;;;5073975;28;20046;-46
2021/05/08 06:43:36;;;;;;;7.40;4.50;;;;;;;;;;5073693;28;20054;-46
2021/05/08 06:46:02;;;;;;;8.75;5.10;;;;;;;;;;5073846;28;20116;-46
2021/05/08 06:48:28;;;;;;;14.48;4.60;;;;;;;;;;5093239;28;20065;-46
2021/05/08 06:50:54;;;;;;;7.40;4.38;;;;;;;;;;5093514;28;20035;-47
2021/05/08 06:53:20;;;;;;;4.97;3.33;;;;;;;;;;5092501;28;20020;-46
2021/05/08 06:55:46;;;;;;;6.82;3.85;;;;;;;;;;5093577;28;20043;-46
2021/05/08 06:58:12;;;;;;;7.70;4.15;;;;;;;;;;5093729;28;20035;-46
2021/05/08 07:00:38;;;;;;;7.55;4.55;;;;;;;;;;5093718;28;20028;-46
2021/05/08 07:03:05;;;;;;;7.82;5.53;;;;;;;;;;5093734;28;20020;-47
2021/05/08 07:05:32;;;;;;;11.77;4.80;;;;;;;;;;5093624;28;20059;-47
2021/05/08 07:08:02;;;;;;;11.15;4.43;;;;;;;;;;5093555;28;20024;-46
2021/05/08 07:10:28;;;;;;;9.23;5.00;;;;;;;;;;5092775;28;20044;-46
2021/05/08 07:12:54;;;;;;;9.23;5.63;;;;;;;;;;5093756;28;20028;-46
2021/05/08 07:15:20;;;;;;;5.10;3.00;;;;;;;;;;5093563;28;20330;-46
2021/05/08 07:18:00;;;;;;;8.57;4.60;;;;;;;;;;5093543;28;20038;-47
2021/05/08 07:20:26;;;;;;;7.72;4.00;;;;;;;;;;5093432;28;20093;-46
2021/05/08 07:22:52;;;;;;;3.42;2.97;;;;;;;;;;5092667;28;20457;-47
2021/05/08 07:25:18;;;;;;;7.57;4.13;;;;;;;;;;5093595;28;20024;-46
2021/05/08 07:27:44;;;;;;;7.50;4.88;;;;;;;;;;5093545;28;20028;-46
2021/05/08 07:30:10;;;;;;;7.05;4.03;;;;;;;;;;5092914;28;20468;-46
2021/05/08 07:32:37;;;;;;;4.22;3.28;;;;;;;;;;5093276;28;20023;-47
2021/05/08 07:35:03;;;;;;;7.50;3.65;;;;;;;;;;5093239;28;20028;-47
2021/05/08 07:37:29;;;;;;;8.23;3.53;;;;;;;;;;5093295;28;20058;-46
2021/05/08 07:39:55;;;;;;;9.60;4.88;;;;;;;;;;5092544;28;20055;-47
2021/05/08 07:42:21;;;;;;;9.50;5.00;;;;;;;;;;5093261;28;20020;-46
2021/05/08 07:44:47;;;;;;;10.13;5.07;;;;;;;;;;5093133;28;20408;-46
2021/05/08 07:47:13;;;;;;;5.70;3.92;;;;;;;;;;5093173;28;20095;-47
2021/05/08 07:49:39;;;;;;;5.68;4.18;;;;;;;;;;5092755;28;20119;-47
2021/05/08 07:52:06;;;;;;;7.72;3.70;;;;;;;;;;5092617;28;20555;-47
2021/05/08 07:54:32;;;;;;;6.18;1.80;;;;;;;;;;5093243;28;20032;-47
2021/05/08 07:56:58;;;;;;;2.22;1.50;;;;;;;;;;5093438;28;20017;-46
2021/05/08 07:59:24;;;;;;;3.80;2.47;;;;;;;;;;5092740;28;20081;-47
2021/05/08 08:01:50;;;;;;;4.70;3.03;;;;;;;;;;5094581;28;20390;-47
2021/05/08 08:04:16;;;;;;;8.98;4.03;;;;;;;;;;5096700;28;20035;-46
2021/05/08 08:06:42;;;;;;;4.38;2.95;;;;;;;;;;5097143;28;20107;-47
2021/05/08 08:09:08;;;;;;;7.53;4.15;;;;;;;;;;5096771;28;20032;-46
2021/05/08 08:11:34;;;;;;;7.10;3.38;;;;;;;;;;5096999;28;20024;-46
2021/05/08 08:14:00;;;;;;;7.03;4.55;;;;;;;;;;5092963;28;20081;-46
2021/05/08 08:16:26;;;;;;;2.95;1.95;;;;;;;;;;5093439;28;20020;-46
2021/05/08 08:18:52;;;;;;;7.63;2.97;;;;;;;;;;5096905;28;20031;-47
2021/05/08 08:21:18;;;;;;;6.10;3.55;;;;;;;;;;5096356;28;20487;-46
2021/05/08 08:23:44;;;;;;;5.40;3.78;;;;;;;;;;5096883;28;20054;-46
2021/05/08 08:26:10;;;;;;;9.27;4.70;;;;;;;;;;5096774;28;20071;-47
2021/05/08 08:28:36;;;;;;;5.63;3.22;;;;;;;;;;5096062;28;20032;-46
2021/05/08 08:31:02;;;;;;;6.65;3.88;;;;;;;;;;5096931;28;20028;-46
2021/05/08 08:33:28;;;;;;;5.50;3.47;;;;;;;;;;5096297;28;20070;-47
2021/05/08 08:35:54;;;;;;;4.47;2.97;;;;;;;;;;5096480;28;20028;-46
2021/05/08 08:38:20;;;;;;;4.38;2.75;;;;;;;;;;5095941;28;20047;-47
2021/05/08 08:40:47;;;;;;;6.82;4.13;;;;;;;;;;5096223;28;20031;-47
2021/05/08 08:43:14;;;;;;;8.65;4.80;;;;;;;;;;5096395;28;20103;-47
2021/05/08 08:45:40;;;;;;;6.78;3.58;;;;;;;;;;5095648;28;20035;-47
2021/05/08 08:48:06;;;;;;;4.40;3.28;;;;;;;;;;5096218;28;20028;-46
2021/05/08 08:50:37;;;;;;;8.52;3.70;;;;;;;;;;5095425;28;20044;-46
2021/05/08 08:53:04;;;;;;;11.52;6.20;;;;;;;;;;5096750;28;20081;-46
2021/05/08 08:55:31;;;;;;;8.02;3.95;;;;;;;;;;5095639;28;20024;-47
2021/05/08 08:57:57;;;;;;;8.23;4.72;;;;;;;;;;5096377;28;20031;-48
2021/05/08 09:00:23;;;;;;;7.30;4.30;;;;;;;;;;5095764;28;20445;-49
2021/05/08 09:02:50;;;;;;;4.60;2.88;;;;;;;;;;5095805;28;20028;-47
2021/05/08 09:05:17;;;;;;;0.68;0.68;;;;;;;;;;5095637;28;20028;-46
2021/05/08 09:07:44;;;;;;;8.27;4.43;;;;;;;;;;5096238;28;20081;-47
2021/05/08 09:10:20;;;;;;;7.18;3.92;;;;;;;;;;5095677;28;20039;-47
2021/05/08 09:12:47;;;;;;;6.22;3.13;;;;;;;;;;5095534;28;20028;-49
2021/05/08 09:15:13;;;;;;;8.30;4.00;;;;;;;;;;5095515;28;20039;-47
2021/05/08 09:17:46;;;;;;;6.72;4.00;;;;;;;;;;5095722;28;20337;-47
2021/05/08 09:20:13;;;;;;;5.72;3.97;;;;;;;;;;5094121;28;20259;-47
2021/05/08 09:22:40;;;;;;;8.15;5.20;;;;;;;;;;5095711;28;20027;-48
2021/05/08 09:25:06;;;;;;;9.07;4.25;;;;;;;;;;5095663;28;20032;-47
2021/05/08 09:27:32;;;;;;;7.50;2.97;;;;;;;;;;5095374;28;20119;-48
2021/05/08 09:30:08;;;;;;;11.52;3.65;;;;;;;;;;5094712;28;20045;-47
2021/05/08 09:32:38;;;;;;;7.00;4.78;;;;;;;;;;5095924;28;20119;-47
2021/05/08 09:35:06;;;;;;;7.38;3.90;;;;;;;;;;5094571;28;20412;-47
2021/05/08 09:37:32;;;;;;;10.77;5.28;;;;;;;;;;5094616;28;20024;-47
2021/05/08 09:40:11;;;;;;;10.25;4.78;;;;;;;;;;5095126;28;20107;-47
2021/05/08 09:42:49;;;;;;;5.78;2.30;;;;;;;;;;5095449;28;20035;-47
2021/05/08 09:45:16;;;;;;;6.35;3.65;;;;;;;;;;5095116;28;20044;-47
2021/05/08 09:47:42;;;;;;;8.82;4.28;;;;;;;;;;5095064;28;20074;-47
2021/05/08 09:50:08;;;;;;;6.05;3.58;;;;;;;;;;5094826;28;20374;-47
2021/05/08 09:52:44;;;;;;;4.25;2.08;;;;;;;;;;5094955;28;20399;-47
2021/05/08 09:55:10;;;;;;;5.68;2.22;;;;;;;;;;5094439;28;20368;-47
2021/05/08 09:57:36;;;;;;;2.28;1.52;;;;;;;;;;5094977;28;20024;-47
2021/05/08 10:00:03;;;;;;;2.05;1.40;;;;;;;;;;5094653;28;20028;-47
2021/05/08 10:02:29;;;;;;;2.50;1.40;;;;;;;;;;5094661;28;20119;-47
2021/05/08 10:04:58;;;;;;;1.77;0.60;;;;;;;;;;5094660;28;20099;-48
2021/05/08 10:07:27;;;;;;;2.20;1.38;;;;;;;;;;5094475;28;20020;-48
2021/05/08 10:09:56;;;;;;;2.60;1.90;;;;;;;;;;5094669;28;20036;-47
2021/05/08 10:12:23;;;;;;;1.27;1.17;;;;;;;;;;5094751;28;20358;-47
2021/05/08 10:14:50;;;;;;;1.00;0.90;;;;;;;;;;5094436;28;20153;-47
2021/05/08 10:17:20;;;;;;;4.78;2.35;;;;;;;;;;5094255;28;20028;-48
2021/05/08 10:19:47;;;;;;;3.10;1.52;;;;;;;;;;5094653;28;20115;-48
2021/05/08 10:22:14;;;;;;;1.27;1.10;;;;;;;;;;5094191;28;20024;-46
2021/05/08 10:24:41;;;;;;;4.90;2.30;;;;;;;;;;5094595;28;20127;-47
2021/05/08 10:27:07;;;;;;;2.92;2.13;;;;;;;;;;5093986;28;20023;-48
2021/05/08 10:29:36;;;;;;;0.77;0.70;;;;;;;;;;5094412;28;20032;-47
2021/05/08 10:32:04;;;;;;;1.95;1.10;;;;;;;;;;5094137;28;20050;-48
2021/05/08 10:34:33;;;;;;;1.88;0.57;;;;;;;;;;5093960;28;20349;-48
2021/05/08 10:37:12;;;;;;;0.70;0.70;;;;;;;;;;5094125;28;20341;-47
2021/05/08 10:39:48;;;;;;;0.82;0.77;;;;;;;;;;5093952;28;20081;-47
2021/05/08 10:42:29;;;;;;;0.63;0.60;;;;;;;;;;5094275;28;20032;-47
2021/05/08 10:44:55;;;;;;;1.63;0.95;;;;;;;;;;5093894;28;20165;-48
2021/05/08 10:47:21;;;;;;;1.85;1.17;;;;;;;;;;5093695;28;20024;-46
2021/05/08 10:50:06;;;;;;;0.50;0.50;;;;;;;;;;5093386;28;20400;-46
2021/05/08 10:52:50;;;;;;;1.83;0.93;;;;;;;;;;5093670;28;20020;-46
2021/05/08 10:55:22;;;;;;;0.75;0.73;;;;;;;;;;5093775;28;20524;-47
2021/05/08 10:58:08;;;;;;;2.45;1.50;;;;;;;;;;5094016;28;20070;-47
2021/05/08 11:00:50;;;;;;;0.93;0.65;;;;;;;;;;5093499;28;20032;-46
2021/05/08 11:03:17;;;;;;;1.20;1.10;;;;;;;;;;5093735;28;20051;-46
2021/05/08 11:05:52;;;;;;;0.32;0.32;;;;;;;;;;5092215;28;20456;-46
2021/05/08 11:08:27;;;;;;;1.10;0.93;;;;;;;;;;5078343;28;20056;-46
2021/05/08 11:10:53;;;;;;;2.28;1.88;;;;;;;;;;5091858;28;20077;-46
2021/05/08 11:13:21;;;;;;;1.55;1.20;;;;;;;;;;5092501;28;20024;-46
2021/05/08 11:16:03;;;;;;;2.25;1.58;;;;;;;;;;5073908;28;20229;-47
2021/05/08 11:18:37;;;;;;;4.88;1.35;;;;;;;;;;5073081;28;20051;-47
2021/05/08 11:21:13;;;;;;;3.85;1.85;;;;;;;;;;5088375;28;20055;-46
2021/05/08 11:23:46;;;;;;;1.55;1.20;;;;;;;;;;5093660;28;20050;-46
2021/05/08 11:26:24;;;;;;;0.20;0.20;;;;;;;;;;5093513;28;20429;-46
2021/05/08 11:28:53;;;;;;;1.45;1.35;;;;;;;;;;5092617;28;20046;-46
2021/05/08 11:31:26;;;;;;;3.28;1.13;;;;;;;;;;5093338;28;20448;-46
2021/05/08 11:33:53;;;;;;;5.93;2.45;;;;;;;;;;5093476;28;20063;-46
2021/05/08 11:36:19;;;;;;;1.63;1.50;;;;;;;;;;5092865;28;20365;-46
2021/05/08 11:38:45;;;;;;;3.15;1.13;;;;;;;;;;5092600;28;20024;-46
2021/05/08 11:41:20;;;;;;;3.00;1.80;;;;;;;;;;5092692;28;20040;-47
2021/05/08 11:43:55;;;;;;;3.05;1.65;;;;;;;;;;5093300;28;20020;-46
2021/05/08 11:46:25;;;;;;;2.42;1.33;;;;;;;;;;5093178;28;20024;-46
2021/05/08 11:48:51;;;;;;;10.23;3.60;;;;;;;;;;5092726;28;20027;-47
2021/05/08 11:51:17;;;;;;;18.95;5.82;;;;;;;;;;5093405;28;20021;-47
2021/05/08 11:53:43;;;;;;;8.25;2.70;;;;;;;;;;5092446;28;20362;-46
2021/05/08 11:56:10;;;;;;;4.03;2.30;;;;;;;;;;5093173;28;20016;-47
2021/05/08 11:58:36;;;;;;;3.30;1.77;;;;;;;;;;5092854;28;20031;-47
2021/05/08 12:01:02;;;;;;;4.45;1.70;;;;;;;;;;5093079;28;20026;-46
2021/05/08 12:03:29;;;;;;;6.82;2.40;;;;;;;;;;5092646;28;20085;-46
2021/05/08 12:05:55;;;;;;;6.63;2.63;;;;;;;;;;5093059;28;20449;-47
2021/05/08 12:08:22;;;;;;;30.95;4.63;;;;;;;;;;5092256;28;20395;-46
2021/05/08 12:10:49;;;;;;;2.80;1.77;;;;;;;;;;5092809;28;20119;-46
2021/05/08 12:13:15;;;;;;;6.40;2.17;;;;;;;;;;5091555;28;20026;-47
2021/05/08 12:15:42;;;;;;;3.55;1.77;;;;;;;;;;5093177;28;20103;-46
2021/05/08 12:18:09;;;;;;;1.52;1.35;;;;;;;;;;5092883;28;20028;-46
2021/05/08 12:20:41;;;;;;;1.13;0.90;;;;;;;;;;5093035;28;20044;-46
2021/05/08 12:23:11;;;;;;;2.60;1.63;;;;;;;;;;5092977;28;20089;-46
2021/05/08 12:25:37;;;;;;;;;;;;;;;;;;5092868;28;20028;-46
2021/05/08 12:28:32;;;;;;;2.55;1.55;;;;;;;;;;5092676;28;19912;-47
2021/05/08 12:30:59;;;;;;;10.18;1.10;;;;;;;;;;5090303;28;20044;-47
2021/05/08 12:33:26;;;;;;;1.58;1.08;;;;;;;;;;5090063;28;20028;-46
2021/05/08 12:35:53;;;;;;;2.60;1.48;;;;;;;;;;5089418;28;20032;-46
2021/05/08 12:38:22;;;;;;;6.05;1.40;;;;;;;;;;5089383;28;20024;-46
2021/05/08 12:40:51;;;;;;;1.75;1.50;;;;;;;;;;5090148;28;20028;-47
2021/05/08 12:43:24;;;;;;;2.72;1.40;;;;;;;;;;5089473;28;20032;-47
2021/05/08 12:45:59;;;;;;;0.57;0.57;;;;;;;;;;5089425;28;20016;-46
2021/05/08 12:48:26;;;;;;;0.82;0.70;;;;;;;;;;5090636;28;20035;-47
2021/05/08 12:50:52;;;;;;;11.07;1.85;;;;;;;;;;5093767;28;20397;-46
2021/05/08 12:53:20;;;;;;;13.35;1.52;;;;;;;;;;5091859;28;20012;-46
2021/05/08 12:55:59;;;;;;;1.77;1.50;;;;;;;;;;5093555;28;20405;-46
2021/05/08 12:58:33;;;;;;;3.97;1.70;;;;;;;;;;5093036;28;20354;-47
2021/05/08 13:01:00;;;;;;;3.28;1.58;;;;;;;;;;5093571;28;20028;-46
2021/05/08 13:03:46;;;;;;;3.92;1.73;;;;;;;;;;5093164;28;20040;-46
2021/05/08 13:06:22;;;;;;;2.33;1.65;;;;;;;;;;5093507;28;20031;-46
2021/05/08 13:08:49;;;;;;;4.95;1.65;;;;;;;;;;5075087;28;20028;-46
2021/05/08 13:11:31;;;;;;;1.35;1.25;;;;;;;;;;5075869;28;20028;-46
2021/05/08 13:14:16;;;;;;;0.98;0.80;;;;;;;;;;5079921;28;20232;-46
2021/05/08 13:16:42;;;;;;;2.08;0.95;;;;;;;;;;5096195;28;20161;-47
2021/05/08 13:19:08;;;;;;;1.45;1.20;;;;;;;;;;5095049;28;20031;-47
2021/05/08 13:21:34;;;;;;;2.13;0.75;;;;;;;;;;5096077;28;20024;-46
2021/05/08 13:24:00;;;;;;;2.20;1.25;;;;;;;;;;5095401;28;20362;-46
2021/05/08 13:26:26;;;;;;;4.25;1.63;;;;;;;;;;5095806;28;20036;-46
2021/05/08 13:28:52;;;;;;;2.33;1.75;;;;;;;;;;5094693;28;20035;-46
2021/05/08 13:31:18;;;;;;;1.40;1.30;;;;;;;;;;5096007;28;20043;-46
2021/05/08 13:33:44;;;;;;;2.80;1.73;;;;;;;;;;5095096;28;20145;-46
2021/05/08 13:36:10;;;;;;;7.03;1.00;;;;;;;;;;5095718;28;20411;-47
2021/05/08 13:38:36;;;;;;;0.65;0.52;;;;;;;;;;5094583;28;20414;-46
2021/05/08 13:41:02;;;;;;;2.63;1.45;;;;;;;;;;5095257;28;20047;-46
2021/05/08 13:43:29;;;;;;;2.80;1.40;;;;;;;;;;5094859;28;20107;-46
2021/05/08 13:45:56;;;;;;;0.80;0.80;;;;;;;;;;5095536;28;20028;-46
2021/05/08 13:48:22;;;;;;;3.08;1.73;;;;;;;;;;5094465;28;20442;-46
2021/05/08 13:50:48;;;;;;;3.22;1.50;;;;;;;;;;5094853;28;20040;-46
2021/05/08 13:53:15;;;;;;;1.10;1.00;;;;;;;;;;5095357;28;20028;-46
2021/05/08 13:55:41;;;;;;;1.30;1.00;;;;;;;;;;5095154;28;20048;-45
2021/05/08 13:58:07;;;;;;;0.88;0.80;;;;;;;;;;5094627;28;20031;-46
2021/05/08 14:00:33;;;;;;;0.98;0.90;;;;;;;;;;5094396;28;20051;-46
2021/05/08 14:02:59;;;;;;;1.17;0.65;;;;;;;;;;5094307;28;20133;-47
2021/05/08 14:05:25;;;;;;;1.63;1.27;;;;;;;;;;5095165;28;20430;-46
2021/05/08 14:07:51;;;;;;;1.73;0.90;;;;;;;;;;5094567;28;20028;-46
2021/05/08 14:10:17;;;;;;;1.42;1.25;;;;;;;;;;5093838;28;20054;-46
2021/05/08 14:12:43;;;;;;;4.22;1.73;;;;;;;;;;5094221;28;20024;-46
2021/05/08 14:15:09;;;;;;;1.02;0.75;;;;;;;;;;5094283;28;20835;-46
2021/05/08 14:17:35;;;;;;;5.88;1.40;;;;;;;;;;5094502;28;20071;-46
2021/05/08 14:20:01;;;;;;;1.42;1.33;;;;;;;;;;5094496;28;20031;-46
2021/05/08 14:22:27;;;;;;;1.23;1.05;;;;;;;;;;5094252;28;20027;-46
2021/05/08 14:24:53;;;;;;;2.03;0.80;;;;;;;;;;5094886;28;20025;-46
2021/05/08 14:27:19;;;;;;;1.55;0.90;;;;;;;;;;5094234;28;20024;-46
2021/05/08 14:29:45;;;;;;;1.10;0.82;;;;;;;;;;5094363;28;20040;-47
2021/05/08 14:32:11;;;;;;;1.17;0.80;;;;;;;;;;5093357;28;20458;-46
2021/05/08 14:34:37;;;;;;;6.75;0.95;;;;;;;;;;5094512;28;20073;-47
2021/05/08 14:37:04;;;;;;;0.88;0.88;;;;;;;;;;5093013;28;20034;-47
2021/05/08 14:39:30;;;;;;;1.20;1.10;;;;;;;;;;5093810;28;20288;-47
2021/05/08 14:41:56;;;;;;;4.47;1.13;;;;;;;;;;5094605;28;20326;-47
2021/05/08 14:44:22;;;;;;;1.45;0.98;;;;;;;;;;5094116;28;20028;-47